Yuci, China
Current Conditions -  °F | °C
As of 11:30 AM on Saturday 29 Nov 2014 (Local Time) from ZBYN Reporting Station
Haze Haze  
Wind Chill: 35°   Ceiling: Unl
Heat Index: 41°   Visibility: 1.8mi
Dew Point: 27°   Wind: 9mph
Humidity: 57%   Direction: 320°NW
Pressure: 30.03"   Gusts: NA
Location:  37.68°N, 112.73°E
Report Text: ZBYN 290330Z 32004MPS 3000 HZ NSC 05/M03 Q1017 NOSIG
Loading
Personal Weather Stations






























Interactive Weather Map New forecast layout! Learn more

10-Day Weather Forecast

Advertisements
Track Severe Weather on mobile